Capitol Logistics 206




TJSJ
Luis Munoz Marin International Airport
San Juan, PR
MBPV
Providenciales International Airport
Providenciales, TC

Activity Log

Date Flight Route Aircraft Duration
09/22/2021 CPX206 ACONY3 SAPPO R507 GTK B752 1h 23m

Route Details

Aircraft Information
Group: Narrowbodies
Types: B738,B752
Route Data
Demand: V
Distance: 406nm
Duration: 1h 44m
Recm'd Route: ACONY3 SAPPO R507 GTK G648 PVN
Origin Wx: TJSJ 272156Z 07015KT 10SM FEW034 FEW055 FEW100 28/22 A3002 RMK AO2 SLP164 T02780222
Dest. Wx: MBPV 272200Z 11007KT 9999 VCSH SCT012 28/21 Q1014
Notes:

Financial History
Total Freight: 56,482lbs
Average Load: 56,482lbs/flt
Fuel Used: 10,156lbs
Avg. Fuel Used: 10,156lbs/flt
Fuel Expense: $2,945
Avg. Fuel Expense: $2,945
Avg. Fuel Cost: $0.29/lbs
Total Gross Income: $170,576
Pilot Pay: $169
Total Expenses: $21,002
Total Revenue: $146,420
Average Revenue: $170,575.64